The Patten, MA

7:35 PM EST on December 02, 2016 (GMT -0500)
Shelburne--Patten Hill | | Change Station

Elev 1066 ft 42.61 °N, 72.71 °W | Updated 7 minutes ago

Partly Cloudy
Partly Cloudy
38.6 °F
Feels Like 39 °F
N
2.0
Wind Variable Wind from North
Gusts 8.0 mph

Today
High -- | Low -- °F
--% Chance of Precip.
Yesterday
High -- | Low -- °F
Precip. -- in
Pressure 29.78 in
Visibility 10.0 miles
Clouds Few 4800 ft
Windchill 39 °F
Dew Point 25 °F
Humidity 58%
Rainfall 0.00 in
Snow Depth Not available.
7:02 AM 4:18 PM
Waxing Crescent, 11% visible
METAR KORE 022352Z AUTO 22004KT 10SM FEW048 04/M02 A2976 RMK AO2 SLP085 T00391022 10083 20033 53002
Pressure 29.78 in
Visibility 10.0 miles
Clouds Few 4800 ft
Windchill 39 °F
Dew Point 25 °F
Humidity 58%
Rainfall 0.00 in
Snow Depth Not available.
7:02 AM 4:18 PM
Waxing Crescent, 11% visible
METAR KORE 022352Z AUTO 22004KT 10SM FEW048 04/M02 A2976 RMK AO2 SLP085 T00391022 10083 20033 53002

10-Day Weather Forecast

Almanac

Astronomy

Dec. 02, 2016 Rise Set
Actual Time
Civil Twilight
Nautical Twilight
Astronomical Twilight
Moon
Length of Visible Light
Length of Day
Tomorrow will be .
, % of the Moon is Illuminated

Today's Extremes

State Highs State Lows

Community

WunderPhotos

Upload Photos

1,955,381 photos uploaded!

WunderBlog® & News

Nearby

Air Quality

  Air Quality AQ Index Pollutant
Not available.

Snow Depth

Station Depth Elevation

Earthquake Activity

City Distance Mag. Time & Date
Minimum magnitude displayed is 2.5.

Coastal Water Temperatures

Place Temperature

Stations

Nearby Weather Stations

Station Location Temp. Windchill Dew Point Humidity Wind Precip. Elev Updated Type
                   

Watches & Warnings

There are currently no watches in effect.